Home > Products > Valid Products > TAF

000
FTUS44 KLZK 232300
TAFPBF
TAF
KPBF 232320Z 2400/2424 13009KT P6SM SCT035 BKN050
     FM240300 14008KT P6SM VCTS BKN035CB OVC050
     FM241600 17015G24KT P6SM VCTS BKN035CB OVC080 PROB30 2420/2424
      3SM -TSRA BR BKN025CB OVC040=



000
FTUS44 KLZK 232300
TAFHRO
TAF
KHRO 232320Z 2400/2424 12008KT P6SM SCT040 BKN050 OVC250
     FM240600 13006KT P6SM VCTS BKN035CB OVC050
      TEMPO 2408/2412 4SM -TSRA BR OVC025CB
     FM241500 16010G18KT P6SM VCTS BKN035CB OVC080 PROB30 2418/2424
      2SM -TSRA BKN010 OVC025CB=



000
FTUS44 KLZK 232300
TAFPBF
TAF
KPBF 232320Z 2400/2424 13009KT P6SM SCT035 BKN050
     FM240300 14008KT P6SM VCTS BKN035CB OVC050
     FM241600 17015G24KT P6SM VCTS BKN035CB OVC080 PROB30 2420/2424
      3SM -TSRA BR BKN025CB OVC040=



000
FTUS44 KLZK 232300
TAFLIT
TAF
KLIT 232320Z 2400/2424 12008KT P6SM SCT035 BKN050
     FM240300 13006KT P6SM VCTS BKN035CB OVC050
      TEMPO 2410/2414 5SM -TSRA BR BKN025 OVC035CB
     FM241600 16015G22KT P6SM VCTS BKN035CB OVC080 PROB30 2420/2424
      3SM -TSRA BR BKN025CB OVC040=



000
FTUS44 KLZK 232300
TAFLIT
TAF
KLIT 232320Z 2400/2424 12008KT P6SM SCT035 BKN050
     FM240300 13006KT P6SM VCTS BKN035CB OVC050
      TEMPO 2410/2414 5SM -TSRA BR BKN025 OVC035CB
     FM241600 16015G22KT P6SM VCTS BKN035CB OVC080 PROB30 2420/2424
      3SM -TSRA BR BKN025CB OVC040=



000
FTUS44 KLZK 232300
TAFHOT
TAF
KHOT 232320Z 2400/2424 12008KT P6SM SCT035 BKN050
     FM240300 13006KT P6SM VCTS BKN035CB OVC050
      TEMPO 2409/2413 5SM -TSRA BR BKN015 OVC035CB
     FM241600 16010G18KT P6SM VCTS BKN035CB OVC080 PROB30 2418/2424
      3SM TSRA BR BKN015CB OVC025=



000
FTUS44 KLZK 232300
TAFHRO
TAF
KHRO 232320Z 2400/2424 12008KT P6SM SCT040 BKN050 OVC250
     FM240600 13006KT P6SM VCTS BKN035CB OVC050
      TEMPO 2408/2412 4SM -TSRA BR OVC025CB
     FM241500 16010G18KT P6SM VCTS BKN035CB OVC080 PROB30 2418/2424
      2SM -TSRA BKN010 OVC025CB=



000
FTUS44 KLZK 232300
TAFHOT
TAF
KHOT 232320Z 2400/2424 12008KT P6SM SCT035 BKN050
     FM240300 13006KT P6SM VCTS BKN035CB OVC050
      TEMPO 2409/2413 5SM -TSRA BR BKN015 OVC035CB
     FM241600 16010G18KT P6SM VCTS BKN035CB OVC080 PROB30 2418/2424
      3SM TSRA BR BKN015CB OVC025=



000
FTUS44 KLZK 231800 AAA
TAFHRO
TAF AMD
KHRO 231835Z 2319/2418 12010KT P6SM VCSH SCT015 OVC040
     FM232000 12010KT P6SM VCSH FEW010 BKN035 OVC100
     FM240000 13009KT P6SM VCTS SCT025 BKN050CB OVC100
     FM240600 14009KT P6SM -SHRA SCT020 OVC050 PROB30 2406/2412 5SM
      -TSRA BR OVC035CB=



000
FTUS44 KLZK 231800 AAA
TAFHRO
TAF AMD
KHRO 231835Z 2319/2418 12010KT P6SM VCSH SCT015 OVC040
     FM232000 12010KT P6SM VCSH FEW010 BKN035 OVC100
     FM240000 13009KT P6SM VCTS SCT025 BKN050CB OVC100
     FM240600 14009KT P6SM -SHRA SCT020 OVC050 PROB30 2406/2412 5SM
      -TSRA BR OVC035CB=



000
FTUS44 KLZK 231700
TAFLIT
TAF
KLIT 231736Z 2318/2418 12008KT P6SM SCT050 BKN100 BKN250
     FM232100 13008KT P6SM VCSH SCT030 BKN050 OVC250
     FM240600 13006KT P6SM VCSH BKN035 OVC050 PROB30 2408/2414 5SM
      -TSRA BR OVC035CB=



000
FTUS44 KLZK 231700
TAFHOT
TAF
KHOT 231736Z 2318/2418 14006KT P6SM BKN030 OVC050
     FM232000 14008KT P6SM VCSH SCT030 BKN050 OVC250
     FM240400 13006KT P6SM VCSH BKN035 OVC050 PROB30 2405/2411 5SM
      -TSRA BR OVC035CB=



000
FTUS44 KLZK 231700
TAFPBF
TAF
KPBF 231736Z 2318/2418 13008KT P6SM SCT050 BKN100 OVC250
     FM232100 13008KT P6SM VCSH SCT030 BKN050 OVC250
     FM240600 13006KT P6SM VCSH BKN035 OVC050 PROB30 2408/2414 5SM
      -TSRA BR OVC035CB=



000
FTUS44 KLZK 231700
TAFHRO
TAF
KHRO 231736Z 2318/2418 12010KT P6SM VCSH BKN005 OVC040
     FM232000 12010KT P6SM VCSH SCT010 BKN035 OVC100
     FM240000 13009KT P6SM VCTS SCT025 BKN050CB OVC100
     FM240600 14009KT P6SM -SHRA SCT020 OVC050 PROB30 2406/2412 5SM
      -TSRA BR OVC035CB=



000
FTUS44 KLZK 231700 AAB
TAFHRO
TAF AMD
KHRO 231704Z 2317/2412 12010KT P6SM VCSH SCT020 BKN040 OVC100
      TEMPO 2317/2318 BKN005
     FM240000 13010KT P6SM VCTS SCT025 BKN050CB OVC100
     FM240600 14009KT P6SM -SHRA SCT020 OVC050 PROB30 2406/2412 5SM
      -TSRA BR OVC035CB=



000
FTUS44 KLZK 231600 AAA
TAFHOT
TAF AMD
KHOT 231657Z 2317/2412 10006KT P6SM SCT025 OVC050
      TEMPO 2317/2320 BKN025
     FM232000 13008KT P6SM VCSH SCT030 BKN050 OVC250
     FM240400 13006KT P6SM VCSH BKN030 OVC050 PROB30 2406/2412 6SM
      -TSRA BR OVC035CB=



000
FTUS44 KLZK 231600 AAA
TAFHOT
TAF AMD
KHOT 231657Z 2317/2412 10006KT P6SM SCT025 OVC050
      TEMPO 2317/2320 BKN025
     FM232000 13008KT P6SM VCSH SCT030 BKN050 OVC250
     FM240400 13006KT P6SM VCSH BKN030 OVC050 PROB30 2406/2412 6SM
      -TSRA BR OVC035CB=



000
FTUS44 KLZK 231400 AAA
TAFHRO
TAF AMD
KHRO 231422Z 2314/2412 13008KT P6SM VCSH SCT025 OVC050
      TEMPO 2314/2317 3SM -SHRA BR BKN030
     FM231700 14010KT P6SM VCTS BKN050CB OVC100
     FM240000 13010KT P6SM VCTS SCT025 BKN050CB OVC100 PROB30
      2406/2412 5SM -TSRA BR BKN035CB=



000
FTUS44 KLZK 231200 AAA
TAFPBF
TAF AMD
KPBF 231259Z 2313/2412 04005KT P6SM SCT025 BKN040
     FM231700 12008KT P6SM SCT050 BKN100 OVC250
     FM232000 12008KT P6SM VCSH BKN050 OVC100=



000
FTUS44 KLZK 231200 AAA
TAFPBF
TAF AMD
KPBF 231259Z 2313/2412 04005KT P6SM SCT025 BKN040
     FM231700 12008KT P6SM SCT050 BKN100 OVC250
     FM232000 12008KT P6SM VCSH BKN050 OVC100=



000
FTUS44 KLZK 231200 AAA
TAFLIT
TAF AMD
KLIT 231224Z 2312/2412 06005KT P6SM SCT025 OVC050
     FM231800 12008KT P6SM VCSH BKN050 BKN100=



000
FTUS44 KLZK 231200 AAA
TAFLIT
TAF AMD
KLIT 231224Z 2312/2412 06005KT P6SM SCT025 OVC050
     FM231800 12008KT P6SM VCSH BKN050 BKN100=



000
FTUS44 KLZK 231100
TAFLIT
TAF
KLIT 231136Z 2312/2412 VRB05KT P6SM SCT025 OVC050
      TEMPO 2312/2316 BKN025
     FM231600 12008KT P6SM VCSH BKN050 BKN100=



000
FTUS44 KLZK 231100
TAFHRO
TAF
KHRO 231136Z 2312/2412 13008KT P6SM VCSH SCT025 OVC050
      TEMPO 2312/2315 5SM -SHRA BR BKN025
     FM231500 14012KT P6SM VCTS BKN050CB
     FM240000 13010KT P6SM VCTS SCT025 BKN050CB PROB30 2406/2412 5SM
      -TSRA BR BKN025CB=



000
FTUS44 KLZK 231100
TAFHOT
TAF
KHOT 231136Z 2312/2412 09005KT P6SM VCSH SCT025 BKN050
      TEMPO 2312/2316 BKN025
     FM231600 12006KT P6SM VCSH SCT025 OVC050
      TEMPO 2316/2320 5SM -SHRA BR OVC025
     FM232000 13008KT P6SM VCTS BKN050CB PROB30 2403/2409 4SM -TSRA
      BR OVC025CB=



000
FTUS44 KLZK 231100
TAFPBF
TAF
KPBF 231136Z 2312/2412 VRB05KT P6SM SCT025 OVC050
      TEMPO 2312/2316 BKN025
     FM231600 12008KT P6SM BKN050 BKN100=



000
FTUS44 KLZK 231100
TAFLIT
TAF
KLIT 231136Z 2312/2412 VRB05KT P6SM SCT025 OVC050
      TEMPO 2312/2316 BKN025
     FM231600 12008KT P6SM VCSH BKN050 BKN100=



000
FTUS44 KLZK 231100
TAFPBF
TAF
KPBF 231136Z 2312/2412 VRB05KT P6SM SCT025 OVC050
      TEMPO 2312/2316 BKN025
     FM231600 12008KT P6SM BKN050 BKN100=



000
FTUS44 KLZK 231100
TAFHRO
TAF
KHRO 231136Z 2312/2412 13008KT P6SM VCSH SCT025 OVC050
      TEMPO 2312/2315 5SM -SHRA BR BKN025
     FM231500 14012KT P6SM VCTS BKN050CB
     FM240000 13010KT P6SM VCTS SCT025 BKN050CB PROB30 2406/2412 5SM
      -TSRA BR BKN025CB=



000
FTUS44 KLZK 231100
TAFHOT
TAF
KHOT 231136Z 2312/2412 09005KT P6SM VCSH SCT025 BKN050
      TEMPO 2312/2316 BKN025
     FM231600 12006KT P6SM VCSH SCT025 OVC050
      TEMPO 2316/2320 5SM -SHRA BR OVC025
     FM232000 13008KT P6SM VCTS BKN050CB PROB30 2403/2409 4SM -TSRA
      BR OVC025CB=



000
FTUS44 KLZK 230500 RRA
TAFPBF
TAF
KPBF 230540Z 2306/2406 08005KT P6SM SCT100 BKN250
     FM231400 12007KT P6SM SCT050 BKN150
     FM240000 13008KT P6SM SCT150 BKN250=



000
FTUS44 KLZK 230500 RRA
TAFLIT
TAF
KLIT 230540Z 2306/2406 VRB04KT P6SM VCSH SCT100 BKN250
     FM231400 12008KT P6SM SCT050 BKN100
     FM240000 11007KT P6SM SCT100 BKN250=



000
FTUS44 KLZK 230500 RRA
TAFHOT
TAF
KHOT 230540Z 2306/2406 09005KT P6SM VCSH SCT050 BKN100
      TEMPO 2306/2309 6SM -RA BKN050
     FM231200 12006KT P6SM VCSH BKN050 BKN100
     FM240000 11008KT P6SM VCTS SCT040CB BKN100=



000
FTUS44 KLZK 230500 RRA
TAFHRO
TAF
KHRO 230540Z 2306/2406 13007KT P6SM VCSH BKN050 OVC100
     FM231400 14008KT P6SM SCT050 BKN100
     FM231800 15008KT P6SM VCTS SCT040CB BKN100
     FM240000 14007KT P6SM VCTS BKN050CB PROB30 2400/2406 5SM -TSRA
      BR BKN025CB=



000
FTUS44 KLZK 222300
TAFHOT
TAF
KHOT 222320Z 2300/2324 10004KT P6SM VCSH SCT060 BKN100 OVC250
      TEMPO 2300/2304 -RA
     FM231200 14007KT P6SM FEW050 SCT100 BKN250
     FM232200 11007KT P6SM VCTS SCT035CB SCT080=



000
FTUS44 KLZK 222300
TAFLIT
TAF
KLIT 222320Z 2300/2324 10006KT P6SM VCSH SCT060 SCT100 BKN250
      TEMPO 2301/2303 -RA
     FM231400 15007KT P6SM SCT050 BKN150=



000
FTUS44 KLZK 222300
TAFLIT
TAF
KLIT 222320Z 2300/2324 10006KT P6SM VCSH SCT060 SCT100 BKN250
      TEMPO 2301/2303 -RA
     FM231400 15007KT P6SM SCT050 BKN150=



000
FTUS44 KLZK 222300
TAFHRO
TAF
KHRO 222320Z 2300/2324 11006KT P6SM VCSH BKN050 OVC100
     FM231400 15008KT P6SM SCT050 BKN100
     FM232200 15005KT P6SM VCTS SCT035CB SCT080=



000
FTUS44 KLZK 222300
TAFPBF
TAF
KPBF 222320Z 2300/2324 09006KT P6SM VCSH SCT060 SCT100 BKN250
      TEMPO 2301/2303 -RA
     FM231400 15007KT P6SM SCT050 BKN150=



000
FTUS44 KLZK 222300
TAFHOT
TAF
KHOT 222320Z 2300/2324 10004KT P6SM VCSH SCT060 BKN100 OVC250
      TEMPO 2300/2304 -RA
     FM231200 14007KT P6SM FEW050 SCT100 BKN250
     FM232200 11007KT P6SM VCTS SCT035CB SCT080=



000
FTUS44 KLZK 222300
TAFHRO
TAF
KHRO 222320Z 2300/2324 11006KT P6SM VCSH BKN050 OVC100
     FM231400 15008KT P6SM SCT050 BKN100
     FM232200 15005KT P6SM VCTS SCT035CB SCT080=



000
FTUS44 KLZK 222300
TAFPBF
TAF
KPBF 222320Z 2300/2324 09006KT P6SM VCSH SCT060 SCT100 BKN250
      TEMPO 2301/2303 -RA
     FM231400 15007KT P6SM SCT050 BKN150=



000
FTUS44 KLZK 221700
TAFPBF
TAF
KPBF 221734Z 2218/2318 09008KT P6SM SCT250
     FM230000 09004KT P6SM FEW100 SCT250
     FM230500 10004KT P6SM SCT100 BKN250
     FM231400 14007KT P6SM FEW050 SCT100 BKN250=



000
FTUS44 KLZK 221700
TAFHRO
TAF
KHRO 221734Z 2218/2318 13008KT P6SM FEW100 BKN250
     FM230000 12005KT P6SM VCSH SCT050 BKN100 OVC250
     FM230600 13005KT P6SM VCSH BKN050 OVC100 PROB30 2306/2312 -SHRA
      OVC050=



000
FTUS44 KLZK 221700
TAFHOT
TAF
KHOT 221734Z 2218/2318 11008KT P6SM SCT250
     FM230000 09004KT P6SM VCSH BKN100 OVC250
     FM231400 14007KT P6SM FEW050 SCT100 BKN250=



000
FTUS44 KLZK 221700
TAFLIT
TAF
KLIT 221734Z 2218/2318 10008KT P6SM SCT250
     FM230000 10004KT P6SM SCT100 BKN250
     FM231400 14007KT P6SM FEW050 SCT100 BKN250=



000
FTUS44 KLZK 221100
TAFLIT
TAF
KLIT 221133Z 2212/2312 VRB03KT P6SM SCT250
     FM221500 10008KT P6SM BKN250
     FM230000 08004KT P6SM SCT100 OVC250=



000
FTUS44 KLZK 221100
TAFHRO
TAF
KHRO 221133Z 2212/2312 12004KT P6SM BKN250
     FM221500 13008KT P6SM FEW100 BKN250
     FM230000 12005KT P6SM SCT050 BKN100
     FM230600 13004KT P6SM VCSH BKN050 OVC100=



000
FTUS44 KLZK 221100
TAFHOT
TAF
KHOT 221133Z 2212/2312 VRB03KT P6SM SCT250
     FM221500 11008KT P6SM SCT040 BKN250
     FM230000 09004KT P6SM BKN100 OVC250=



000
FTUS44 KLZK 221100
TAFPBF
TAF
KPBF 221133Z 2212/2312 VRB03KT P6SM SCT250
     FM221500 08008KT P6SM BKN250
     FM230000 07004KT P6SM FEW100 OVC250=



000
FTUS44 KLZK 221100
TAFPBF
TAF
KPBF 221133Z 2212/2312 VRB03KT P6SM SCT250
     FM221500 08008KT P6SM BKN250
     FM230000 07004KT P6SM FEW100 OVC250=



000
FTUS44 KLZK 221100
TAFHOT
TAF
KHOT 221133Z 2212/2312 VRB03KT P6SM SCT250
     FM221500 11008KT P6SM SCT040 BKN250
     FM230000 09004KT P6SM BKN100 OVC250=



000
FTUS44 KLZK 221100
TAFLIT
TAF
KLIT 221133Z 2212/2312 VRB03KT P6SM SCT250
     FM221500 10008KT P6SM BKN250
     FM230000 08004KT P6SM SCT100 OVC250=



000
FTUS44 KLZK 221100
TAFHRO
TAF
KHRO 221133Z 2212/2312 12004KT P6SM BKN250
     FM221500 13008KT P6SM FEW100 BKN250
     FM230000 12005KT P6SM SCT050 BKN100
     FM230600 13004KT P6SM VCSH BKN050 OVC100=



000
FTUS44 KLZK 220500
TAFHRO
TAF
KHRO 220527Z 2206/2306 VRB03KT P6SM SKC
     FM221400 13008KT P6SM FEW100 SCT250
     FM230000 12005KT P6SM SCT050 BKN100=



000
FTUS44 KLZK 220500
TAFHOT
TAF
KHOT 220527Z 2206/2306 09004KT P6SM SKC
     FM221400 10008KT P6SM SCT250
     FM230000 09005KT P6SM BKN250=



000
FTUS44 KLZK 220500
TAFPBF
TAF
KPBF 220527Z 2206/2306 08004KT P6SM SKC
     FM221400 08006KT P6SM SCT250
     FM230000 06005KT P6SM BKN250=



000
FTUS44 KLZK 220500
TAFLIT
TAF
KLIT 220527Z 2206/2306 10005KT P6SM SKC
     FM221400 10007KT P6SM SCT250
     FM230000 09005KT P6SM BKN250=



000
FTUS44 KLZK 220500
TAFPBF
TAF
KPBF 220527Z 2206/2306 08004KT P6SM SKC
     FM221400 08006KT P6SM SCT250
     FM230000 06005KT P6SM BKN250=



000
FTUS44 KLZK 220500
TAFHRO
TAF
KHRO 220527Z 2206/2306 VRB03KT P6SM SKC
     FM221400 13008KT P6SM FEW100 SCT250
     FM230000 12005KT P6SM SCT050 BKN100=



000
FTUS44 KLZK 220500
TAFHOT
TAF
KHOT 220527Z 2206/2306 09004KT P6SM SKC
     FM221400 10008KT P6SM SCT250
     FM230000 09005KT P6SM BKN250=



000
FTUS44 KLZK 220500
TAFLIT
TAF
KLIT 220527Z 2206/2306 10005KT P6SM SKC
     FM221400 10007KT P6SM SCT250
     FM230000 09005KT P6SM BKN250=



000
FTUS44 KLZK 212300
TAFLIT
TAF
KLIT 212329Z 2200/2224 04006KT P6SM SCT250
     FM220200 05003KT P6SM SKC
     FM220900 05005KT P6SM SCT015
     FM221400 09007KT P6SM SCT030=



000
FTUS44 KLZK 212300
TAFPBF
TAF
KPBF 212329Z 2200/2224 05007KT P6SM SCT030 BKN250
     FM220200 04003KT P6SM SKC
     FM221400 07008KT P6SM SCT030=



000
FTUS44 KLZK 212300
TAFPBF
TAF
KPBF 212329Z 2200/2224 05007KT P6SM SCT030 BKN250
     FM220200 04003KT P6SM SKC
     FM221400 07008KT P6SM SCT030=



000
FTUS44 KLZK 212300
TAFHOT
TAF
KHOT 212329Z 2200/2224 06003KT P6SM SKC
     FM221400 09009KT P6SM SCT030=



000
FTUS44 KLZK 212300
TAFHRO
TAF
KHRO 212329Z 2200/2224 04003KT P6SM SKC
     FM221400 13008KT P6SM SCT030=



000
FTUS44 KLZK 212300
TAFLIT
TAF
KLIT 212329Z 2200/2224 04006KT P6SM SCT250
     FM220200 05003KT P6SM SKC
     FM220900 05005KT P6SM SCT015
     FM221400 09007KT P6SM SCT030=



000
FTUS44 KLZK 212300
TAFHOT
TAF
KHOT 212329Z 2200/2224 06003KT P6SM SKC
     FM221400 09009KT P6SM SCT030=



000
FTUS44 KLZK 212300
TAFHRO
TAF
KHRO 212329Z 2200/2224 04003KT P6SM SKC
     FM221400 13008KT P6SM SCT030=



000
FTUS44 KLZK 212200 AAA
TAFPBF
TAF AMD
KPBF 212204Z 2122/2218 02010KT P6SM BKN029
     FM220000 06005KT P6SM SCT035 SCT150
     FM220800 05005KT P6SM SCT015 SCT150=



000
FTUS44 KLZK 212200 AAA
TAFPBF
TAF AMD
KPBF 212204Z 2122/2218 02010KT P6SM BKN029
     FM220000 06005KT P6SM SCT035 SCT150
     FM220800 05005KT P6SM SCT015 SCT150=



000
FTUS44 KLZK 211700
TAFPBF
TAF
KPBF 211730Z 2118/2218 02010G18KT P6SM BKN020 BKN035
     FM212000 03010KT P6SM SCT020 BKN035
     FM220100 06005KT P6SM SCT035 SCT150
     FM220800 05005KT P6SM SCT015 SCT150=



000
FTUS44 KLZK 211700
TAFLIT
TAF
KLIT 211730Z 2118/2218 34010KT P6SM SCT015 BKN025
     FM212000 03010KT P6SM SCT020 BKN035
     FM220000 06005KT P6SM SCT150
     FM220700 05005KT P6SM SCT015 SCT150=



000
FTUS44 KLZK 211700
TAFHRO
TAF
KHRO 211730Z 2118/2218 34008KT P6SM SCT020 BKN035
      TEMPO 2118/2120 BKN025
     FM220000 VRB03KT P6SM SCT150
     FM221400 13008KT P6SM BKN080=



000
FTUS44 KLZK 211700
TAFHOT
TAF
KHOT 211730Z 2118/2218 03008KT P6SM BKN020 OVC040
     FM212000 04008KT P6SM SCT025 BKN040
     FM220100 07003KT P6SM SCT035 SCT150
     FM220800 09004KT P6SM SCT015 BKN120
     FM221400 11006KT P6SM SCT012 BKN070=



000
FTUS44 KLZK 211100
TAFHRO
TAF
KHRO 211134Z 2112/2212 34008KT P6SM OVC015
     FM211500 36008KT P6SM BKN025
     FM211800 35007KT P6SM BKN040
     FM220000 VRB03KT P6SM BKN250=



000
FTUS44 KLZK 211100
TAFHOT
TAF
KHOT 211134Z 2112/2212 02006KT P6SM OVC020
     FM211500 03008KT P6SM BKN020 OVC040
     FM211800 04008KT P6SM BKN040
     FM220000 VRB03KT P6SM BKN250=



000
FTUS44 KLZK 211100
TAFPBF
TAF
KPBF 211134Z 2112/2212 01012KT P6SM VCSH SCT008 OVC015
      TEMPO 2112/2115 6SM -RA OVC008
     FM211500 02010KT P6SM VCSH BKN020 OVC040
     FM211900 03008KT P6SM VCSH SCT025 BKN040
     FM220000 04005KT P6SM SCT100 BKN250=



000
FTUS44 KLZK 211100
TAFLIT
TAF
KLIT 211134Z 2112/2212 01008KT P6SM OVC020
     FM211500 02010KT P6SM BKN020 OVC040
     FM211800 03010KT P6SM BKN040
     FM220000 06005KT P6SM BKN250=



000
FTUS44 KLZK 210600 CCA
TAFPBF
TAF COR
KPBF 210600Z 2106/2206 36010KT P6SM SCT015 OVC025
      TEMPO 2106/2108 BKN015
     FM210800 36008KT P6SM OVC015
     FM211500 01008KT P6SM VCSH BKN020 OVC040
     FM212100 02008KT P6SM VCSH SCT025 BKN040
     FM220000 04006KT P6SM SCT100 BKN250=



000
FTUS44 KLZK 210600 CCA
TAFPBF
TAF COR
KPBF 210600Z 2106/2206 36010KT P6SM SCT015 OVC025
      TEMPO 2106/2108 BKN015
     FM210800 36008KT P6SM OVC015
     FM211500 01008KT P6SM VCSH BKN020 OVC040
     FM212100 02008KT P6SM VCSH SCT025 BKN040
     FM220000 04006KT P6SM SCT100 BKN250=



000
FTUS44 KLZK 210500
TAFPBF
TAF
KPBF 210539Z 2106/2206 35008KT P6SM SCT015 BKN050
      TEMPO 2106/2108 BKN015
     FM210800 36008KT P6SM OVC015
     FM211500 01008KT P6SM VCSH BKN020 OVC040
     FM212100 02008KT P6SM VCSH SCT025 BKN040
     FM220000 04006KT P6SM SCT100 BKN250=



000
FTUS44 KLZK 210500
TAFHOT
TAF
KHOT 210539Z 2106/2206 34005KT P6SM BKN025
     FM210900 35005KT P6SM SCT008 OVC015
      TEMPO 2109/2113 6SM BR OVC008
     FM211300 02006KT P6SM BKN020 OVC040
     FM211700 04006KT P6SM BKN040
     FM220000 VRB03KT P6SM BKN250=



000
FTUS44 KLZK 210500
TAFHRO
TAF
KHRO 210539Z 2106/2206 35008KT P6SM SCT008 OVC015
      TEMPO 2109/2113 5SM BR OVC008
     FM211500 36008KT P6SM OVC020
     FM211800 35007KT P6SM BKN040
     FM220000 VRB03KT P6SM BKN250=



000
FTUS44 KLZK 210500
TAFLIT
TAF
KLIT 210539Z 2106/2206 36010KT P6SM OVC025
     FM210900 01008KT P6SM SCT008 OVC015
      TEMPO 2109/2113 6SM BR OVC008
     FM211300 02008KT P6SM BKN020 OVC040
     FM211700 03008KT P6SM BKN040
     FM220000 VRB03KT P6SM BKN250=



    US Dept of Commerce
    National Oceanic and Atmospheric Administration
    National Weather Service
    1325 East West Highway
    Silver Spring, MD 20910
    Page Author: NWS Internet Services Team
Disclaimer
Information Quality
Credits
Glossary
Privacy Policy
Freedom of Information Act (FOIA)
About Us
Career Opportunities